Arcadia, Michigan
Current Conditions -  °F | °C
As of 5:33 AM on Sunday 21 Dec 2014 (Local Time) from KFKS Reporting Station
Overcast Overcast  
Wind Chill: 24°   Ceiling: 2300
Heat Index: 30°   Visibility: 7mi
Dew Point: 28°   Wind: 6mph
Humidity: 92%   Direction: 150°SSE
Pressure: 30.2"   Gusts: NA
Location:  44.49°N, 86.23°W
Report Text: KFKS 211033Z AUTO 15005KT 7SM OVC023 M01/M02 A3020 RMK AO2 T10101022
Loading
Personal Weather Stations






























Interactive Weather Map New forecast layout! Learn more

10-Day Weather Forecast

Advertisements
Track Severe Weather on mobile